sensor_id;sensor_type;location;lat;lon;timestamp;pressure;altitude;pressure_sealevel;temperature;humidity
46045;BME280;31781;54.094;13.428;2023-01-16T00:01:56;99687.66;;;6.10;68.98
46045;BME280;31781;54.094;13.428;2023-01-16T00:03:57;99682.47;;;6.09;68.75
46045;BME280;31781;54.094;13.428;2023-01-16T00:06:01;99683.09;;;6.04;69.22
46045;BME280;31781;54.094;13.428;2023-01-16T00:08:03;99680.38;;;6.04;69.61
46045;BME280;31781;54.094;13.428;2023-01-16T00:10:06;99686.19;;;6.01;69.40
46045;BME280;31781;54.094;13.428;2023-01-16T00:12:09;99682.47;;;6.02;68.99
46045;BME280;31781;54.094;13.428;2023-01-16T00:14:10;99685.56;;;5.99;69.35
46045;BME280;31781;54.094;13.428;2023-01-16T00:16:12;99696.16;;;6.01;69.14
46045;BME280;31781;54.094;13.428;2023-01-16T00:18:16;99689.09;;;6.00;69.70
46045;BME280;31781;54.094;13.428;2023-01-16T00:20:18;99684.72;;;5.99;69.61
46045;BME280;31781;54.094;13.428;2023-01-16T00:22:19;99694.72;;;5.98;69.16
46045;BME280;31781;54.094;13.428;2023-01-16T00:24:27;99693.03;;;5.97;69.99
46045;BME280;31781;54.094;13.428;2023-01-16T00:26:29;99697.63;;;5.97;69.70
46045;BME280;31781;54.094;13.428;2023-01-16T00:28:35;99694.06;;;5.96;69.55
46045;BME280;31781;54.094;13.428;2023-01-16T00:30:36;99693.25;;;5.96;69.46
46045;BME280;31781;54.094;13.428;2023-01-16T00:32:38;99690.75;;;5.94;70.00
46045;BME280;31781;54.094;13.428;2023-01-16T00:34:40;99693.88;;;5.91;69.66
46045;BME280;31781;54.094;13.428;2023-01-16T00:36:42;99691.19;;;5.91;69.53
46045;BME280;31781;54.094;13.428;2023-01-16T00:38:45;99691.38;;;5.90;69.57
46045;BME280;31781;54.094;13.428;2023-01-16T00:40:50;99696.97;;;5.88;70.12
46045;BME280;31781;54.094;13.428;2023-01-16T00:42:52;99696.13;;;5.87;69.65
46045;BME280;31781;54.094;13.428;2023-01-16T00:44:55;99698.03;;;5.87;69.89
46045;BME280;31781;54.094;13.428;2023-01-16T00:46:59;99700.25;;;5.83;70.33
46045;BME280;31781;54.094;13.428;2023-01-16T00:49:02;99702.97;;;5.83;70.20
46045;BME280;31781;54.094;13.428;2023-01-16T00:51:04;99701.06;;;5.84;70.09
46045;BME280;31781;54.094;13.428;2023-01-16T00:53:06;99696.72;;;5.83;69.96
46045;BME280;31781;54.094;13.428;2023-01-16T00:55:08;99696.72;;;5.83;70.56
46045;BME280;31781;54.094;13.428;2023-01-16T00:57:09;99706.47;;;5.84;70.52
46045;BME280;31781;54.094;13.428;2023-01-16T00:59:11;99694.88;;;5.83;70.05
46045;BME280;31781;54.094;13.428;2023-01-16T01:01:14;99700.66;;;5.80;70.88
46045;BME280;31781;54.094;13.428;2023-01-16T01:03:16;99714.13;;;5.80;70.40
46045;BME280;31781;54.094;13.428;2023-01-16T01:05:18;99713.34;;;5.80;70.04
46045;BME280;31781;54.094;13.428;2023-01-16T01:07:19;99714.13;;;5.80;70.43
46045;BME280;31781;54.094;13.428;2023-01-16T01:09:21;99704.81;;;5.76;70.49
46045;BME280;31781;54.094;13.428;2023-01-16T01:11:23;99710.59;;;5.73;70.51
46045;BME280;31781;54.094;13.428;2023-01-16T01:13:27;99717.66;;;5.74;70.62
46045;BME280;31781;54.094;13.428;2023-01-16T01:15:29;99719.53;;;5.74;70.26
46045;BME280;31781;54.094;13.428;2023-01-16T01:17:32;99710.81;;;5.72;70.33
46045;BME280;31781;54.094;13.428;2023-01-16T01:19:34;99721.81;;;5.70;70.49
46045;BME280;31781;54.094;13.428;2023-01-16T01:21:35;99722.81;;;5.69;70.95
46045;BME280;31781;54.094;13.428;2023-01-16T01:23:37;99720.34;;;5.68;70.24
46045;BME280;31781;54.094;13.428;2023-01-16T01:25:39;99720.34;;;5.68;70.33
46045;BME280;31781;54.094;13.428;2023-01-16T01:27:40;99716.81;;;5.67;70.71
46045;BME280;31781;54.094;13.428;2023-01-16T01:29:42;99722.63;;;5.64;70.80
46045;BME280;31781;54.094;13.428;2023-01-16T01:31:44;99714.94;;;5.61;71.40
46045;BME280;31781;54.094;13.428;2023-01-16T01:33:47;99715.75;;;5.62;71.32
46045;BME280;31781;54.094;13.428;2023-01-16T01:35:49;99716.78;;;5.61;71.31
46045;BME280;31781;54.094;13.428;2023-01-16T01:37:51;99716.16;;;5.59;71.40
46045;BME280;31781;54.094;13.428;2023-01-16T01:39:52;99717.41;;;5.56;71.25
46045;BME280;31781;54.094;13.428;2023-01-16T01:41:54;99713.44;;;5.52;71.28
46045;BME280;31781;54.094;13.428;2023-01-16T01:43:56;99713.25;;;5.54;71.12
46045;BME280;31781;54.094;13.428;2023-01-16T01:45:57;99724.22;;;5.52;71.31
46045;BME280;31781;54.094;13.428;2023-01-16T01:48:03;99726.09;;;5.52;71.65
46045;BME280;31781;54.094;13.428;2023-01-16T01:50:15;99729.81;;;5.51;71.24
46045;BME280;31781;54.094;13.428;2023-01-16T01:52:20;99735.84;;;5.46;72.15
46045;BME280;31781;54.094;13.428;2023-01-16T01:54:26;99738.53;;;5.46;71.39
46045;BME280;31781;54.094;13.428;2023-01-16T01:56:38;99735.19;;;5.44;72.27
46045;BME280;31781;54.094;13.428;2023-01-16T01:58:44;99743.50;;;5.43;72.24
46045;BME280;31781;54.094;13.428;2023-01-16T02:00:48;99744.53;;;5.42;72.39
46045;BME280;31781;54.094;13.428;2023-01-16T02:02:55;99740.16;;;5.40;71.74
46045;BME280;31781;54.094;13.428;2023-01-16T02:04:58;99742.41;;;5.37;71.80
46045;BME280;31781;54.094;13.428;2023-01-16T02:07:05;99745.94;;;5.37;72.53
46045;BME280;31781;54.094;13.428;2023-01-16T02:09:07;99742.63;;;5.35;72.38
46045;BME280;31781;54.094;13.428;2023-01-16T02:11:12;99742.81;;;5.34;72.49
46045;BME280;31781;54.094;13.428;2023-01-16T02:13:16;99744.69;;;5.33;72.68
46045;BME280;31781;54.094;13.428;2023-01-16T02:15:19;99747.38;;;5.33;72.39
46045;BME280;31781;54.094;13.428;2023-01-16T02:17:20;99741.38;;;5.31;72.78
46045;BME280;31781;54.094;13.428;2023-01-16T02:19:33;99738.66;;;5.31;72.58
46045;BME280;31781;54.094;13.428;2023-01-16T02:22:11;99733.06;;;5.33;71.88
46045;BME280;31781;54.094;13.428;2023-01-16T02:24:36;99726.19;;;5.30;71.93
46045;BME280;31781;54.094;13.428;2023-01-16T02:27:00;99727.63;;;5.26;72.68
46045;BME280;31781;54.094;13.428;2023-01-16T02:29:43;99723.91;;;5.27;72.76
46045;BME280;31781;54.094;13.428;2023-01-16T02:31:55;99724.31;;;5.24;72.98
46045;BME280;31781;54.094;13.428;2023-01-16T02:34:15;99730.91;;;5.22;73.09
46045;BME280;31781;54.094;13.428;2023-01-16T02:36:27;99731.13;;;5.20;72.32
46045;BME280;31781;54.094;13.428;2023-01-16T02:38:42;99737.56;;;5.19;73.30
46045;BME280;31781;54.094;13.428;2023-01-16T02:40:53;99730.31;;;5.20;72.86
46045;BME280;31781;54.094;13.428;2023-01-16T02:43:03;99733.19;;;5.18;72.78
46045;BME280;31781;54.094;13.428;2023-01-16T02:45:16;99743.13;;;5.18;73.35
46045;BME280;31781;54.094;13.428;2023-01-16T02:47:25;99740.44;;;5.18;73.57
46045;BME280;31781;54.094;13.428;2023-01-16T02:49:30;99743.53;;;5.15;74.32
46045;BME280;31781;54.094;13.428;2023-01-16T02:51:37;99742.69;;;5.14;73.92
46045;BME280;31781;54.094;13.428;2023-01-16T02:53:49;99747.72;;;5.17;73.87
46045;BME280;31781;54.094;13.428;2023-01-16T02:55:55;99749.56;;;5.17;74.64
46045;BME280;31781;54.094;13.428;2023-01-16T02:58:00;99749.56;;;5.17;74.55
46045;BME280;31781;54.094;13.428;2023-01-16T03:00:04;99750.41;;;5.17;74.63
46045;BME280;31781;54.094;13.428;2023-01-16T03:02:05;99750.19;;;5.19;74.89
46045;BME280;31781;54.094;13.428;2023-01-16T03:04:54;99752.31;;;5.23;73.76
46045;BME280;31781;54.094;13.428;2023-01-16T03:07:01;99747.94;;;5.22;73.90
46045;BME280;31781;54.094;13.428;2023-01-16T03:09:23;99753.34;;;5.22;74.65
46045;BME280;31781;54.094;13.428;2023-01-16T03:11:30;99747.94;;;5.22;74.85
46045;BME280;31781;54.094;13.428;2023-01-16T03:13:55;99743.19;;;5.24;73.95
46045;BME280;31781;54.094;13.428;2023-01-16T03:16:13;99747.75;;;5.24;73.91
46045;BME280;31781;54.094;13.428;2023-01-16T03:18:33;99747.75;;;5.24;74.29
46045;BME280;31781;54.094;13.428;2023-01-16T03:20:47;99743.38;;;5.23;74.30
46045;BME280;31781;54.094;13.428;2023-01-16T03:23:00;99745.66;;;5.19;74.86
46045;BME280;31781;54.094;13.428;2023-01-16T03:25:17;99753.56;;;5.21;74.50
46045;BME280;31781;54.094;13.428;2023-01-16T03:27:29;99747.50;;;5.19;74.08
46045;BME280;31781;54.094;13.428;2023-01-16T03:29:39;99747.50;;;5.19;73.69
46045;BME280;31781;54.094;13.428;2023-01-16T03:31:49;99746.66;;;5.18;74.19
46045;BME280;31781;54.094;13.428;2023-01-16T03:33:55;99745.03;;;5.17;73.83
46045;BME280;31781;54.094;13.428;2023-01-16T03:36:07;99741.69;;;5.15;73.70
46045;BME280;31781;54.094;13.428;2023-01-16T03:38:11;99741.06;;;5.13;74.12
46045;BME280;31781;54.094;13.428;2023-01-16T03:40:18;99746.44;;;5.13;73.86
46045;BME280;31781;54.094;13.428;2023-01-16T03:42:25;99750.34;;;5.11;73.77
46045;BME280;31781;54.094;13.428;2023-01-16T03:44:32;99741.00;;;5.07;73.31
46045;BME280;31781;54.094;13.428;2023-01-16T03:46:39;99740.19;;;5.06;73.32
46045;BME280;31781;54.094;13.428;2023-01-16T03:48:48;99735.81;;;5.05;73.19
46045;BME280;31781;54.094;13.428;2023-01-16T03:50:54;99736.41;;;5.01;73.42
46045;BME280;31781;54.094;13.428;2023-01-16T03:53:03;99733.88;;;4.99;73.35
46045;BME280;31781;54.094;13.428;2023-01-16T03:55:12;99732.44;;;4.97;74.02
46045;BME280;31781;54.094;13.428;2023-01-16T03:57:20;99730.13;;;4.94;73.67
46045;BME280;31781;54.094;13.428;2023-01-16T03:59:27;99727.63;;;4.92;73.63
46045;BME280;31781;54.094;13.428;2023-01-16T04:01:37;99736.75;;;4.91;74.19
46045;BME280;31781;54.094;13.428;2023-01-16T04:03:44;99734.44;;;4.88;74.22
46045;BME280;31781;54.094;13.428;2023-01-16T04:05:51;99734.66;;;4.86;73.87
46045;BME280;31781;54.094;13.428;2023-01-16T04:08:07;99731.13;;;4.86;74.36
46045;BME280;31781;54.094;13.428;2023-01-16T04:10:13;99730.50;;;4.84;74.19
46045;BME280;31781;54.094;13.428;2023-01-16T04:12:20;99729.66;;;4.83;74.20
46045;BME280;31781;54.094;13.428;2023-01-16T04:14:23;99736.91;;;4.83;74.50
46045;BME280;31781;54.094;13.428;2023-01-16T04:16:27;99734.41;;;4.81;74.77
46045;BME280;31781;54.094;13.428;2023-01-16T04:18:32;99730.03;;;4.80;74.86
46045;BME280;31781;54.094;13.428;2023-01-16T04:20:35;99732.53;;;4.82;74.49
46045;BME280;31781;54.094;13.428;2023-01-16T04:22:39;99726.31;;;4.81;74.87
46045;BME280;31781;54.094;13.428;2023-01-16T04:24:47;99716.19;;;4.83;74.90
46045;BME280;31781;54.094;13.428;2023-01-16T04:26:49;99719.72;;;4.84;75.53
46045;BME280;31781;54.094;13.428;2023-01-16T04:28:51;99717.84;;;4.84;74.92
46045;BME280;31781;54.094;13.428;2023-01-16T04:30:53;99708.72;;;4.85;75.48
46045;BME280;31781;54.094;13.428;2023-01-16T04:32:55;99706.88;;;4.86;75.49
46045;BME280;31781;54.094;13.428;2023-01-16T04:34:57;99696.28;;;4.84;75.04
46045;BME280;31781;54.094;13.428;2023-01-16T04:36:58;99705.00;;;4.86;75.81
46045;BME280;31781;54.094;13.428;2023-01-16T04:39:00;99695.25;;;4.85;75.75
46045;BME280;31781;54.094;13.428;2023-01-16T04:41:03;99693.22;;;4.87;75.40
46045;BME280;31781;54.094;13.428;2023-01-16T04:43:05;99688.84;;;4.86;76.00
46045;BME280;31781;54.094;13.428;2023-01-16T04:45:08;99689.69;;;4.87;75.73
46045;BME280;31781;54.094;13.428;2023-01-16T04:47:10;99693.41;;;4.86;76.34
46045;BME280;31781;54.094;13.428;2023-01-16T04:49:11;99693.22;;;4.87;76.04
46045;BME280;31781;54.094;13.428;2023-01-16T04:51:13;99691.53;;;4.86;77.16
46045;BME280;31781;54.094;13.428;2023-01-16T04:53:15;99690.50;;;4.87;76.58
46045;BME280;31781;54.094;13.428;2023-01-16T04:55:16;99695.91;;;4.87;77.02
46045;BME280;31781;54.094;13.428;2023-01-16T04:57:19;99694.00;;;4.88;77.91
46045;BME280;31781;54.094;13.428;2023-01-16T04:59:21;99692.16;;;4.88;77.26
46045;BME280;31781;54.094;13.428;2023-01-16T05:01:23;99690.13;;;4.90;77.43
46045;BME280;31781;54.094;13.428;2023-01-16T05:03:25;99687.19;;;4.92;77.17
46045;BME280;31781;54.094;13.428;2023-01-16T05:05:27;99687.00;;;4.94;77.19
46045;BME280;31781;54.094;13.428;2023-01-16T05:07:29;99687.44;;;4.97;77.30
46045;BME280;31781;54.094;13.428;2023-01-16T05:09:31;99684.56;;;4.99;77.54
46045;BME280;31781;54.094;13.428;2023-01-16T05:11:34;99681.66;;;5.00;77.09
46045;BME280;31781;54.094;13.428;2023-01-16T05:13:37;99684.16;;;5.02;77.16
46045;BME280;31781;54.094;13.428;2023-01-16T05:15:38;99676.69;;;5.04;77.16
46045;BME280;31781;54.094;13.428;2023-01-16T05:17:40;99675.66;;;5.05;76.84
46045;BME280;31781;54.094;13.428;2023-01-16T05:19:42;99681.69;;;5.07;77.31
46045;BME280;31781;54.094;13.428;2023-01-16T05:21:43;99679.63;;;5.09;76.98
46045;BME280;31781;54.094;13.428;2023-01-16T05:23:45;99665.94;;;5.10;76.98
46045;BME280;31781;54.094;13.428;2023-01-16T05:25:47;99668.63;;;5.10;76.59
46045;BME280;31781;54.094;13.428;2023-01-16T05:27:49;99664.72;;;5.13;76.47
46045;BME280;31781;54.094;13.428;2023-01-16T05:29:52;99654.56;;;5.15;76.90
46045;BME280;31781;54.094;13.428;2023-01-16T05:31:54;99654.56;;;5.15;76.16
46045;BME280;31781;54.094;13.428;2023-01-16T05:33:55;99669.53;;;5.17;76.52
46045;BME280;31781;54.094;13.428;2023-01-16T05:35:57;99667.63;;;5.18;75.80
46045;BME280;31781;54.094;13.428;2023-01-16T05:37:59;99662.25;;;5.18;76.23
46045;BME280;31781;54.094;13.428;2023-01-16T05:40:00;99670.34;;;5.18;76.33
46045;BME280;31781;54.094;13.428;2023-01-16T05:42:02;99667.63;;;5.18;76.29
46045;BME280;31781;54.094;13.428;2023-01-16T05:44:04;99677.63;;;5.17;76.06
46045;BME280;31781;54.094;13.428;2023-01-16T05:46:08;99669.72;;;5.16;76.25
46045;BME280;31781;54.094;13.428;2023-01-16T05:48:20;99669.53;;;5.17;75.99
46045;BME280;31781;54.094;13.428;2023-01-16T05:50:24;99669.53;;;5.17;75.38
46045;BME280;31781;54.094;13.428;2023-01-16T05:52:26;99670.53;;;5.16;75.82
46045;BME280;31781;54.094;13.428;2023-01-16T05:54:27;99670.34;;;5.18;75.46
46045;BME280;31781;54.094;13.428;2023-01-16T05:56:29;99670.34;;;5.18;75.59
46045;BME280;31781;54.094;13.428;2023-01-16T05:58:31;99660.59;;;5.17;75.78
46045;BME280;31781;54.094;13.428;2023-01-16T06:00:32;99673.69;;;5.20;75.39
46045;BME280;31781;54.094;13.428;2023-01-16T06:02:35;99666.41;;;5.20;75.31
46045;BME280;31781;54.094;13.428;2023-01-16T06:04:37;99661.03;;;5.20;75.79
46045;BME280;31781;54.094;13.428;2023-01-16T06:06:40;99667.25;;;5.21;75.34
46045;BME280;31781;54.094;13.428;2023-01-16T06:08:41;99659.97;;;5.21;74.83
46045;BME280;31781;54.094;13.428;2023-01-16T06:10:43;99661.66;;;5.22;74.88
46045;BME280;31781;54.094;13.428;2023-01-16T06:12:45;99664.34;;;5.22;75.74
46045;BME280;31781;54.094;13.428;2023-01-16T06:14:47;99665.19;;;5.23;75.67
46045;BME280;31781;54.094;13.428;2023-01-16T06:16:49;99657.09;;;5.23;75.21
46045;BME280;31781;54.094;13.428;2023-01-16T06:18:52;99660.63;;;5.23;75.63
46045;BME280;31781;54.094;13.428;2023-01-16T06:20:54;99649.84;;;5.23;75.04
46045;BME280;31781;54.094;13.428;2023-01-16T06:22:55;99650.66;;;5.24;75.41
46045;BME280;31781;54.094;13.428;2023-01-16T06:24:57;99648.16;;;5.22;75.25
46045;BME280;31781;54.094;13.428;2023-01-16T06:26:59;99650.84;;;5.22;75.13
46045;BME280;31781;54.094;13.428;2023-01-16T06:29:00;99643.59;;;5.23;75.36
46045;BME280;31781;54.094;13.428;2023-01-16T06:31:05;99641.31;;;5.20;75.15
46045;BME280;31781;54.094;13.428;2023-01-16T06:33:08;99641.09;;;5.21;74.89
46045;BME280;31781;54.094;13.428;2023-01-16T06:35:11;99647.31;;;5.22;74.42
46045;BME280;31781;54.094;13.428;2023-01-16T06:37:12;99641.09;;;5.21;74.37
46045;BME280;31781;54.094;13.428;2023-01-16T06:39:14;99642.78;;;5.22;74.52
46045;BME280;31781;54.094;13.428;2023-01-16T06:41:16;99631.16;;;5.22;74.42
46045;BME280;31781;54.094;13.428;2023-01-16T06:43:18;99636.53;;;5.22;73.97
46045;BME280;31781;54.094;13.428;2023-01-16T06:45:19;99638.41;;;5.21;73.95
46045;BME280;31781;54.094;13.428;2023-01-16T06:47:21;99634.06;;;5.20;74.47
46045;BME280;31781;54.094;13.428;2023-01-16T06:49:23;99629.28;;;5.22;74.48
46045;BME280;31781;54.094;13.428;2023-01-16T06:51:26;99634.91;;;5.21;74.47
46045;BME280;31781;54.094;13.428;2023-01-16T06:53:27;99634.06;;;5.20;73.76
46045;BME280;31781;54.094;13.428;2023-01-16T06:55:29;99638.41;;;5.21;73.64
46045;BME280;31781;54.094;13.428;2023-01-16T06:57:34;99637.59;;;5.21;73.70
46045;BME280;31781;54.094;13.428;2023-01-16T06:59:35;99637.59;;;5.21;73.56
46045;BME280;31781;54.094;13.428;2023-01-16T07:01:37;99639.22;;;5.22;73.99
46045;BME280;31781;54.094;13.428;2023-01-16T07:03:39;99642.16;;;5.20;73.50
46045;BME280;31781;54.094;13.428;2023-01-16T07:05:40;99632.19;;;5.21;73.17
46045;BME280;31781;54.094;13.428;2023-01-16T07:07:43;99637.59;;;5.21;73.57
46045;BME280;31781;54.094;13.428;2023-01-16T07:09:45;99632.19;;;5.21;72.93
46045;BME280;31781;54.094;13.428;2023-01-16T07:11:47;99624.13;;;5.21;72.91
46045;BME280;31781;54.094;13.428;2023-01-16T07:13:49;99625.97;;;5.20;73.35
46045;BME280;31781;54.094;13.428;2023-01-16T07:15:50;99626.81;;;5.21;73.32
46045;BME280;31781;54.094;13.428;2023-01-16T07:17:52;99627.00;;;5.19;73.45
46045;BME280;31781;54.094;13.428;2023-01-16T07:19:54;99627.84;;;5.20;72.64
46045;BME280;31781;54.094;13.428;2023-01-16T07:21:55;99624.31;;;5.19;72.64
46045;BME280;31781;54.094;13.428;2023-01-16T07:24:01;99624.91;;;5.21;73.12
46045;BME280;31781;54.094;13.428;2023-01-16T07:26:06;99625.97;;;5.20;72.93
46045;BME280;31781;54.094;13.428;2023-01-16T07:28:09;99633.00;;;5.21;73.15
46045;BME280;31781;54.094;13.428;2023-01-16T07:30:11;99624.91;;;5.21;73.04
46045;BME280;31781;54.094;13.428;2023-01-16T07:32:13;99622.22;;;5.21;72.38
46045;BME280;31781;54.094;13.428;2023-01-16T07:34:15;99631.16;;;5.22;72.85
46045;BME280;31781;54.094;13.428;2023-01-16T07:36:17;99625.56;;;5.23;72.36
46045;BME280;31781;54.094;13.428;2023-01-16T07:38:18;99627.44;;;5.23;73.08
46045;BME280;31781;54.094;13.428;2023-01-16T07:40:21;99625.56;;;5.23;73.05
46045;BME280;31781;54.094;13.428;2023-01-16T07:42:23;99628.25;;;5.23;72.81
46045;BME280;31781;54.094;13.428;2023-01-16T07:44:24;99624.72;;;5.23;72.10
46045;BME280;31781;54.094;13.428;2023-01-16T07:46:26;99620.16;;;5.23;72.30
46045;BME280;31781;54.094;13.428;2023-01-16T07:48:28;99624.53;;;5.24;72.45
46045;BME280;31781;54.094;13.428;2023-01-16T07:50:29;99619.94;;;5.25;72.65
46045;BME280;31781;54.094;13.428;2023-01-16T07:52:31;99619.94;;;5.25;71.88
46045;BME280;31781;54.094;13.428;2023-01-16T07:54:33;99617.25;;;5.25;72.50
46045;BME280;31781;54.094;13.428;2023-01-16T08:03:21;99607.94;;;5.27;72.40
46045;BME280;31781;54.094;13.428;2023-01-16T08:06:08;99606.09;;;5.28;72.51
46045;BME280;31781;54.094;13.428;2023-01-16T08:08:34;99591.13;;;5.25;72.56
46045;BME280;31781;54.094;13.428;2023-01-16T08:10:36;99589.25;;;5.26;72.82
46045;BME280;31781;54.094;13.428;2023-01-16T08:12:38;99594.66;;;5.26;72.23
46045;BME280;31781;54.094;13.428;2023-01-16T08:14:39;99584.69;;;5.26;73.02
46045;BME280;31781;54.094;13.428;2023-01-16T08:16:41;99592.78;;;5.26;73.05
46045;BME280;31781;54.094;13.428;2023-01-16T08:18:45;99590.94;;;5.27;72.98
46045;BME280;31781;54.094;13.428;2023-01-16T08:20:47;99593.41;;;5.28;72.55
46045;BME280;31781;54.094;13.428;2023-01-16T08:22:49;99586.38;;;5.27;72.93
46045;BME280;31781;54.094;13.428;2023-01-16T08:24:51;99575.59;;;5.27;72.24
46045;BME280;31781;54.094;13.428;2023-01-16T08:26:53;99581.81;;;5.28;72.34
46045;BME280;31781;54.094;13.428;2023-01-16T08:28:54;99579.13;;;5.28;72.75
46045;BME280;31781;54.094;13.428;2023-01-16T08:31:03;99576.19;;;5.29;73.13
46045;BME280;31781;54.094;13.428;2023-01-16T08:33:04;99579.13;;;5.28;72.34
46045;BME280;31781;54.094;13.428;2023-01-16T08:35:08;99565.00;;;5.26;72.18
46045;BME280;31781;54.094;13.428;2023-01-16T08:37:10;99559.41;;;5.27;72.96
46045;BME280;31781;54.094;13.428;2023-01-16T08:39:12;99560.25;;;5.28;72.67
46045;BME280;31781;54.094;13.428;2023-01-16T08:41:14;99565.63;;;5.28;72.87
46045;BME280;31781;54.094;13.428;2023-01-16T08:43:16;99567.28;;;5.29;72.09
46045;BME280;31781;54.094;13.428;2023-01-16T08:45:17;99564.38;;;5.30;72.52
46045;BME280;31781;54.094;13.428;2023-01-16T08:47:22;99567.09;;;5.30;72.37
46045;BME280;31781;54.094;13.428;2023-01-16T08:49:24;99560.03;;;5.29;72.96
46045;BME280;31781;54.094;13.428;2023-01-16T08:51:28;99562.53;;;5.31;72.67
46045;BME280;31781;54.094;13.428;2023-01-16T08:53:29;99564.19;;;5.32;72.99
46045;BME280;31781;54.094;13.428;2023-01-16T08:55:31;99559.59;;;5.32;72.61
46045;BME280;31781;54.094;13.428;2023-01-16T08:57:33;99556.09;;;5.32;72.62
46045;BME280;31781;54.094;13.428;2023-01-16T08:59:35;99558.16;;;5.36;72.32
46045;BME280;31781;54.094;13.428;2023-01-16T09:01:36;99554.84;;;5.34;72.71
46045;BME280;31781;54.094;13.428;2023-01-16T09:03:38;99557.13;;;5.37;72.81
46045;BME280;31781;54.094;13.428;2023-01-16T09:05:40;99550.50;;;5.40;72.47
46045;BME280;31781;54.094;13.428;2023-01-16T09:07:43;99548.44;;;5.42;72.70
46045;BME280;31781;54.094;13.428;2023-01-16T09:09:45;99549.88;;;5.45;73.44
46045;BME280;31781;54.094;13.428;2023-01-16T09:11:53;99542.44;;;5.47;72.68
46045;BME280;31781;54.094;13.428;2023-01-16T09:13:55;99539.53;;;5.48;73.25
46045;BME280;31781;54.094;13.428;2023-01-16T09:16:01;99538.91;;;5.53;73.61
46045;BME280;31781;54.094;13.428;2023-01-16T09:18:03;99536.63;;;5.56;72.52
46045;BME280;31781;54.094;13.428;2023-01-16T09:20:05;99535.38;;;5.59;73.00
46045;BME280;31781;54.094;13.428;2023-01-16T09:22:07;99539.13;;;5.64;72.68
46045;BME280;31781;54.094;13.428;2023-01-16T09:24:10;99527.91;;;5.67;72.36
46045;BME280;31781;54.094;13.428;2023-01-16T09:26:12;99534.16;;;5.74;72.09
46045;BME280;31781;54.094;13.428;2023-01-16T09:28:13;99528.31;;;5.77;72.32
46045;BME280;31781;54.094;13.428;2023-01-16T09:30:16;99530.59;;;5.80;72.17
46045;BME280;31781;54.094;13.428;2023-01-16T09:32:18;99528.56;;;5.89;71.70
46045;BME280;31781;54.094;13.428;2023-01-16T09:34:19;99523.97;;;6.03;72.02
46045;BME280;31781;54.094;13.428;2023-01-16T09:36:21;99523.19;;;6.02;71.45
46045;BME280;31781;54.094;13.428;2023-01-16T09:38:23;99519.22;;;6.05;70.91
46045;BME280;31781;54.094;13.428;2023-01-16T09:40:26;99507.38;;;6.06;71.39
46045;BME280;31781;54.094;13.428;2023-01-16T09:42:36;99514.22;;;6.08;71.40
46045;BME280;31781;54.094;13.428;2023-01-16T09:44:41;99505.09;;;6.09;70.68
46045;BME280;31781;54.094;13.428;2023-01-16T09:46:48;99514.81;;;6.10;70.59
46045;BME280;31781;54.094;13.428;2023-01-16T09:48:56;99510.25;;;6.11;71.18
46045;BME280;31781;54.094;13.428;2023-01-16T09:51:02;99508.59;;;6.10;70.97
46045;BME280;31781;54.094;13.428;2023-01-16T09:53:10;99506.31;;;6.07;71.12
46045;BME280;31781;54.094;13.428;2023-01-16T09:55:18;99503.19;;;6.10;70.86
46045;BME280;31781;54.094;13.428;2023-01-16T09:57:26;99498.44;;;6.12;70.93
46045;BME280;31781;54.094;13.428;2023-01-16T09:59:33;99494.28;;;6.16;71.16
46045;BME280;31781;54.094;13.428;2023-01-16T10:01:40;99480.94;;;6.27;70.77
46045;BME280;31781;54.094;13.428;2023-01-16T10:03:43;99472.94;;;6.59;70.52
46045;BME280;31781;54.094;13.428;2023-01-16T10:05:49;99472.88;;;7.10;69.82
46045;BME280;31781;54.094;13.428;2023-01-16T10:07:57;99462.69;;;7.61;69.12
46045;BME280;31781;54.094;13.428;2023-01-16T10:10:09;99444.91;;;8.15;68.21
46045;BME280;31781;54.094;13.428;2023-01-16T10:12:16;99449.13;;;8.65;65.93
46045;BME280;31781;54.094;13.428;2023-01-16T10:14:31;99449.22;;;9.18;67.03
46045;BME280;31781;54.094;13.428;2023-01-16T10:16:50;99434.66;;;9.54;66.26
46045;BME280;31781;54.094;13.428;2023-01-16T10:19:02;99427.84;;;9.75;64.84
46045;BME280;31781;54.094;13.428;2023-01-16T10:21:19;99431.63;;;10.20;63.85
46045;BME280;31781;54.094;13.428;2023-01-16T10:23:39;99426.13;;;10.55;62.37
46045;BME280;31781;54.094;13.428;2023-01-16T10:25:50;99417.25;;;10.88;61.29
46045;BME280;31781;54.094;13.428;2023-01-16T10:28:04;99410.72;;;11.17;61.64
46045;BME280;31781;54.094;13.428;2023-01-16T10:30:14;99411.81;;;11.50;58.90
46045;BME280;31781;54.094;13.428;2023-01-16T10:32:23;99415.09;;;11.68;58.21
46045;BME280;31781;54.094;13.428;2023-01-16T10:34:29;99403.97;;;11.53;56.72
46045;BME280;31781;54.094;13.428;2023-01-16T10:36:37;99398.53;;;11.37;57.05
46045;BME280;31781;54.094;13.428;2023-01-16T10:38:44;99401.09;;;11.27;56.17
46045;BME280;31781;54.094;13.428;2023-01-16T10:40:46;99407.25;;;11.22;55.67
46045;BME280;31781;54.094;13.428;2023-01-16T10:42:54;99396.94;;;11.24;57.25
46045;BME280;31781;54.094;13.428;2023-01-16T10:45:11;99402.56;;;11.51;57.66
46045;BME280;31781;54.094;13.428;2023-01-16T10:47:15;99389.44;;;11.64;54.33
46045;BME280;31781;54.094;13.428;2023-01-16T10:49:18;99395.16;;;11.80;54.46
46045;BME280;31781;54.094;13.428;2023-01-16T10:51:20;99380.69;;;11.96;53.97
46045;BME280;31781;54.094;13.428;2023-01-16T10:53:21;99367.94;;;12.01;53.96
46045;BME280;31781;54.094;13.428;2023-01-16T10:55:23;99369.03;;;12.00;54.02
46045;BME280;31781;54.094;13.428;2023-01-16T10:57:25;99357.31;;;12.22;53.90
46045;BME280;31781;54.094;13.428;2023-01-16T10:59:27;99361.31;;;12.36;53.13
46045;BME280;31781;54.094;13.428;2023-01-16T11:01:31;99360.13;;;12.53;53.30
46045;BME280;31781;54.094;13.428;2023-01-16T11:03:35;99354.81;;;12.63;52.80
46045;BME280;31781;54.094;13.428;2023-01-16T11:05:38;99353.06;;;12.79;52.23
46045;BME280;31781;54.094;13.428;2023-01-16T11:07:39;99351.22;;;12.85;51.70
46045;BME280;31781;54.094;13.428;2023-01-16T11:09:43;99338.75;;;12.67;52.18